createdAt,value
2023-04-26T00:03:27.280Z,5.10
2023-04-26T00:08:29.771Z,5.10
2023-04-26T00:13:31.897Z,5.00
2023-04-26T00:18:37.463Z,5.00
2023-04-26T00:23:41.009Z,5.10
2023-04-26T00:28:43.364Z,5.00
2023-04-26T00:39:04.229Z,4.90
2023-04-26T00:44:10.686Z,4.80
2023-04-26T00:49:25.602Z,4.70
2023-04-26T00:54:28.432Z,4.70
2023-04-26T00:59:31.949Z,4.60
2023-04-26T01:04:35.912Z,4.60
2023-04-26T01:09:38.049Z,4.70
2023-04-26T01:14:40.546Z,4.70
2023-04-26T01:19:53.426Z,4.60
2023-04-26T01:24:58.365Z,4.50
2023-04-26T01:30:00.644Z,4.50
2023-04-26T01:35:57.592Z,4.50
2023-04-26T01:40:35.855Z,4.40
2023-04-26T01:45:40.407Z,4.30
2023-04-26T01:50:43.801Z,4.20
2023-04-26T01:55:48.517Z,4.20
2023-04-26T02:00:53.840Z,4.20
2023-04-26T02:05:58.447Z,4.20
2023-04-26T02:11:00.795Z,4.20
2023-04-26T02:16:07.402Z,4.20
2023-04-26T02:21:13.783Z,4.20
2023-04-26T02:26:16.766Z,4.30
2023-04-26T02:31:20.093Z,4.20
2023-04-26T02:36:23.908Z,4.20
2023-04-26T02:41:27.932Z,4.20
2023-04-26T02:46:44.059Z,4.20
2023-04-26T02:51:58.220Z,4.10
2023-04-26T02:57:05.813Z,4.10
2023-04-26T03:02:15.270Z,4.00
2023-04-26T03:07:17.633Z,4.00
2023-04-26T03:12:33.869Z,3.90
2023-04-26T03:17:36.178Z,3.90
2023-04-26T03:22:38.327Z,3.90
2023-04-26T03:27:43.774Z,3.90
2023-04-26T03:32:48.808Z,3.80
2023-04-26T03:37:58.935Z,3.80
2023-04-26T03:43:10.337Z,3.80
2023-04-26T03:48:25.625Z,3.80
2023-04-26T03:53:30.774Z,3.80
2023-04-26T03:58:36.466Z,3.80
2023-04-26T04:03:45.294Z,3.80
2023-04-26T04:08:50.678Z,3.70
2023-04-26T04:14:00.261Z,3.70
2023-04-26T04:19:08.946Z,3.70
2023-04-26T04:24:14.088Z,3.60
2023-04-26T04:29:19.564Z,3.60
2023-04-26T04:34:24.192Z,3.60
2023-04-26T04:39:27.909Z,3.50
2023-04-26T04:44:30.651Z,3.50
2023-04-26T04:49:39.255Z,3.50
2023-04-26T04:54:43.654Z,3.60
2023-04-26T04:59:51.793Z,3.60
2023-04-26T05:04:58.343Z,3.70
2023-04-26T05:10:01.391Z,3.80
2023-04-26T05:15:10.289Z,3.90
2023-04-26T05:20:12.480Z,4.00
2023-04-26T05:25:14.809Z,4.10
2023-04-26T05:30:16.803Z,4.10
2023-04-26T05:35:18.962Z,4.20
2023-04-26T05:40:20.772Z,4.40
2023-04-26T05:45:23.165Z,4.50
2023-04-26T05:50:25.032Z,4.60
2023-04-26T05:55:27.041Z,4.70
2023-04-26T06:00:29.002Z,4.90
2023-04-26T06:05:34.227Z,5.00
2023-04-26T06:10:37.771Z,5.10
2023-04-26T06:15:39.846Z,5.20
2023-04-26T06:20:41.873Z,5.30
2023-04-26T06:25:45.888Z,5.40
2023-04-26T06:30:47.747Z,5.60
2023-04-26T06:35:49.814Z,5.80
2023-04-26T06:40:51.648Z,5.90
2023-04-26T06:45:53.523Z,6.00
2023-04-26T06:50:56.124Z,6.10
2023-04-26T06:55:58.197Z,6.20
2023-04-26T07:01:00.391Z,6.30
2023-04-26T07:06:02.270Z,6.40
2023-04-26T07:11:10.409Z,6.50
2023-04-26T07:16:12.322Z,6.60
2023-04-26T07:21:17.158Z,6.80
2023-04-26T07:26:19.019Z,6.80
2023-04-26T07:31:20.968Z,7.00
2023-04-26T07:36:24.535Z,7.10
2023-04-26T07:41:27.085Z,7.20
2023-04-26T07:46:28.923Z,7.40
2023-04-26T07:51:31.739Z,7.50
2023-04-26T07:56:33.616Z,7.70
2023-04-26T08:01:35.490Z,7.80
2023-04-26T08:06:38.838Z,8.00
2023-04-26T08:11:41.981Z,8.10
2023-04-26T08:16:44.458Z,8.20
2023-04-26T08:21:46.324Z,8.20
2023-04-26T08:26:48.354Z,8.40
2023-04-26T08:31:50.259Z,8.50
2023-04-26T08:36:52.139Z,8.50
2023-04-26T08:41:57.772Z,8.50
2023-04-26T08:47:18.826Z,8.50
2023-04-26T08:52:23.494Z,8.50
2023-04-26T08:57:26.710Z,8.60
2023-04-26T09:02:28.745Z,8.60
2023-04-26T09:07:32.597Z,8.70
2023-04-26T09:12:36.512Z,8.80
2023-04-26T09:17:41.672Z,8.80
2023-04-26T09:22:43.728Z,8.70
2023-04-26T09:27:46.484Z,8.70
2023-04-26T09:33:03.971Z,8.70
2023-04-26T09:38:11.817Z,8.70
2023-04-26T09:43:16.671Z,8.70
2023-04-26T09:48:26.886Z,8.70
2023-04-26T09:53:52.907Z,8.70
2023-04-26T09:59:02.268Z,8.70
2023-04-26T10:04:04.836Z,8.80
2023-04-26T10:09:09.218Z,8.80
2023-04-26T10:14:11.925Z,8.90
2023-04-26T10:19:14.096Z,8.90
2023-04-26T10:24:16.076Z,9.00
2023-04-26T10:29:18.449Z,9.10
2023-04-26T10:34:21.474Z,9.20
2023-04-26T10:39:24.958Z,9.40
2023-04-26T10:44:41.623Z,9.60
2023-04-26T10:49:46.833Z,9.70
2023-04-26T10:54:53.493Z,9.90
2023-04-26T11:00:10.807Z,10.10
2023-04-26T11:05:45.806Z,10.30
2023-04-26T11:10:53.194Z,10.70
2023-04-26T11:16:00.516Z,11.10
2023-04-26T11:21:05.433Z,11.30
2023-04-26T11:26:08.807Z,11.90
2023-04-26T11:31:14.648Z,12.20
2023-04-26T11:36:17.214Z,12.10
2023-04-26T11:41:19.161Z,11.80
2023-04-26T11:46:22.136Z,11.30
2023-04-26T11:51:24.454Z,11.20
2023-04-26T11:56:26.865Z,10.90
2023-04-26T12:01:29.932Z,10.80
2023-04-26T12:06:45.597Z,10.80
2023-04-26T12:12:07.793Z,10.70
2023-04-26T12:17:10.591Z,10.70
2023-04-26T12:22:12.683Z,10.80
2023-04-26T12:27:21.164Z,10.90
2023-04-26T12:32:23.578Z,10.90
2023-04-26T12:37:25.508Z,10.90
2023-04-26T12:42:27.327Z,10.90
2023-04-26T12:47:29.213Z,11.00
2023-04-26T12:52:33.180Z,11.10
2023-04-26T12:57:36.934Z,11.10
2023-04-26T13:02:39.118Z,11.20
2023-04-26T13:07:42.860Z,11.40
2023-04-26T13:12:44.832Z,11.50
2023-04-26T13:17:47.082Z,11.40
2023-04-26T13:22:49.198Z,11.40
2023-04-26T13:27:53.714Z,11.50
2023-04-26T13:32:57.500Z,11.30
2023-04-26T13:38:00.772Z,11.10
2023-04-26T13:43:02.880Z,11.10
2023-04-26T13:48:04.950Z,11.30
2023-04-26T13:53:07.019Z,11.50
2023-04-26T13:58:09.239Z,11.60
2023-04-26T14:03:11.370Z,11.80
2023-04-26T14:08:13.795Z,12.00
2023-04-26T14:13:16.113Z,12.00
2023-04-26T14:18:18.227Z,12.00
2023-04-26T14:23:20.232Z,12.00
2023-04-26T14:28:22.100Z,11.90
2023-04-26T14:33:25.145Z,11.90
2023-04-26T14:38:27.190Z,11.90
2023-04-26T14:43:29.064Z,11.90
2023-04-26T14:48:30.894Z,11.90
2023-04-26T14:53:33.042Z,11.80
2023-04-26T14:58:35.077Z,11.60
2023-04-26T15:03:37.392Z,11.60
2023-04-26T15:08:39.531Z,11.70
2023-04-26T15:13:41.417Z,11.70
2023-04-26T15:18:43.242Z,11.70
2023-04-26T15:23:45.254Z,12.10
2023-04-26T15:28:47.421Z,12.80
2023-04-26T15:33:49.297Z,13.20
2023-04-26T15:38:51.239Z,13.30
2023-04-26T15:43:53.678Z,13.20
2023-04-26T15:48:55.705Z,12.90
2023-04-26T15:53:57.636Z,12.60
2023-04-26T15:58:59.490Z,12.40
2023-04-26T16:04:01.447Z,12.20
2023-04-26T16:09:17.198Z,12.10
2023-04-26T16:14:26.416Z,12.00
2023-04-26T16:19:28.391Z,12.10
2023-04-26T16:24:30.235Z,11.90
2023-04-26T16:29:32.413Z,11.80
2023-04-26T16:34:34.360Z,11.60
2023-04-26T16:39:36.579Z,11.60
2023-04-26T16:44:38.582Z,11.60
2023-04-26T16:49:40.469Z,11.50
2023-04-26T16:54:42.345Z,11.40
2023-04-26T16:59:44.614Z,11.30
2023-04-26T17:04:49.070Z,11.30
2023-04-26T17:09:55.105Z,11.10
2023-04-26T17:14:58.931Z,11.00
2023-04-26T17:20:00.763Z,10.70
2023-04-26T17:25:02.767Z,10.70
2023-04-26T17:30:05.634Z,10.60
2023-04-26T17:35:08.083Z,10.50
2023-04-26T17:40:10.839Z,10.40
2023-04-26T17:45:14.218Z,10.50
2023-04-26T17:50:17.918Z,10.40
2023-04-26T17:55:19.909Z,10.40
2023-04-26T18:00:22.071Z,10.30
2023-04-26T18:05:24.945Z,10.30
2023-04-26T18:10:26.829Z,10.10
2023-04-26T18:15:29.041Z,10.10
2023-04-26T18:20:31.439Z,10.00
2023-04-26T18:25:33.650Z,10.00
2023-04-26T18:30:35.705Z,9.90
2023-04-26T18:35:37.623Z,9.90
2023-04-26T18:40:43.581Z,9.80
2023-04-26T18:45:45.689Z,9.70
2023-04-26T18:50:51.350Z,9.60
2023-04-26T18:55:53.470Z,9.60
2023-04-26T19:00:55.340Z,9.50
2023-04-26T19:05:57.324Z,9.40
2023-04-26T19:10:59.376Z,9.40
2023-04-26T19:16:16.512Z,9.30
2023-04-26T19:21:22.764Z,9.20
2023-04-26T19:26:56.214Z,9.20
2023-04-26T19:32:57.444Z,9.10
2023-04-26T19:38:15.568Z,9.00
2023-04-26T19:43:51.712Z,9.00
2023-04-26T19:49:02.115Z,8.90
2023-04-26T19:54:09.707Z,8.80
2023-04-26T19:59:39.491Z,8.70
2023-04-26T20:04:47.033Z,8.70
2023-04-26T20:10:12.566Z,8.70
2023-04-26T20:15:30.966Z,8.60
2023-04-26T20:20:39.913Z,8.60
2023-04-26T20:25:58.129Z,8.50
2023-04-26T20:31:04.611Z,8.40
2023-04-26T20:36:15.028Z,8.30
2023-04-26T20:41:23.980Z,8.30
2023-04-26T20:46:27.424Z,8.10
2023-04-26T20:51:38.855Z,8.00
2023-04-26T20:56:58.169Z,7.90
2023-04-26T21:02:05.499Z,7.80
2023-04-26T21:07:12.678Z,7.80
2023-04-26T21:12:16.214Z,7.70
2023-04-26T21:17:20.640Z,7.60
2023-04-26T21:22:25.167Z,7.50
2023-04-26T21:27:29.883Z,7.50
2023-04-26T21:32:32.056Z,7.30
2023-04-26T21:37:47.990Z,7.30
2023-04-26T21:43:03.931Z,7.20
2023-04-26T21:48:20.661Z,7.20
2023-04-26T21:53:23.012Z,7.10
2023-04-26T21:58:34.518Z,7.00
2023-04-26T22:03:37.702Z,6.90
2023-04-26T22:08:53.468Z,6.90
2023-04-26T22:13:56.896Z,6.80
2023-04-26T22:19:01.616Z,6.70
2023-04-26T22:24:05.032Z,6.60
2023-04-26T22:29:15.052Z,6.50
2023-04-26T22:34:32.233Z,6.50
2023-04-26T22:39:39.308Z,6.50
2023-04-26T22:44:44.545Z,6.40
2023-04-26T22:49:50.460Z,6.40
2023-04-26T22:54:55.885Z,6.30
2023-04-26T23:00:00.604Z,6.20
2023-04-26T23:05:05.704Z,6.10
2023-04-26T23:10:13.377Z,6.10
2023-04-26T23:15:15.960Z,6.00
2023-04-26T23:20:21.943Z,6.00
2023-04-26T23:25:24.321Z,6.00
2023-04-26T23:30:39.716Z,5.90
2023-04-26T23:35:43.662Z,5.90
2023-04-26T23:40:46.637Z,5.80
2023-04-26T23:46:06.287Z,5.90
2023-04-26T23:51:17.848Z,5.80
2023-04-26T23:56:23.157Z,5.70
